createdAt,value
2022-09-12T00:01:59.658Z,17.46887
2022-09-12T00:12:01.600Z,17.50244
2022-09-12T00:22:03.509Z,17.48661
2022-09-12T00:32:04.747Z,17.4714
2022-09-12T00:42:05.871Z,17.4543
2022-09-12T00:52:07.097Z,17.41502
2022-09-12T01:02:08.326Z,17.39696
2022-09-12T01:12:10.088Z,17.33456
2022-09-12T01:22:12.329Z,17.30225
2022-09-12T01:32:13.595Z,17.28704
2022-09-12T01:42:14.772Z,17.29908
2022-09-12T01:52:16.107Z,17.18219
2022-09-12T02:02:17.453Z,17.12486
2022-09-12T02:12:18.561Z,17.16731
2022-09-12T02:22:19.925Z,17.11757
2022-09-12T02:32:21.797Z,16.89774
2022-09-12T02:42:22.823Z,16.64591
2022-09-12T02:52:25.044Z,16.46663
2022-09-12T03:02:26.395Z,16.38332
2022-09-12T03:12:27.791Z,16.25281
2022-09-12T03:22:29.836Z,16.13783
2022-09-12T03:32:31.835Z,16.00099
2022-09-12T03:42:33.104Z,15.82803
2022-09-12T03:52:34.189Z,15.71052
2022-09-12T04:02:35.868Z,15.57494
2022-09-12T04:12:37.091Z,15.47675
2022-09-12T04:22:38.077Z,15.39914
2022-09-12T04:32:39.625Z,15.32375
2022-09-12T04:42:41.311Z,15.39439
2022-09-12T04:52:43.541Z,15.39597
2022-09-12T05:02:44.958Z,15.43842
2022-09-12T05:12:46.206Z,15.47707
2022-09-12T05:22:48.460Z,15.52996
2022-09-12T05:32:50.465Z,15.51793
2022-09-12T05:42:51.488Z,15.57621
2022-09-12T05:52:52.714Z,15.53091
2022-09-12T06:02:54.257Z,15.57019
2022-09-12T06:12:56.038Z,15.75993
2022-09-12T06:22:58.208Z,15.87365
2022-09-12T06:32:59.988Z,15.95474
2022-09-12T06:43:01.318Z,15.99433
2022-09-12T06:53:03.096Z,16.04755
2022-09-12T07:03:04.454Z,16.01619
2022-09-12T07:13:06.011Z,15.835
2022-09-12T07:23:07.455Z,16.26041
2022-09-12T07:33:08.785Z,16.62247
2022-09-12T07:43:10.652Z,16.79606
2022-09-12T07:53:11.665Z,16.77389
2022-09-12T08:03:13.088Z,16.60568
2022-09-12T08:13:14.090Z,16.95793
2022-09-12T08:23:15.904Z,17.13215
2022-09-12T08:33:16.957Z,17.16034
2022-09-12T08:43:17.902Z,17.03838
2022-09-12T08:53:19.122Z,17.1974
2022-09-12T09:03:20.419Z,17.29053
2022-09-12T09:13:21.818Z,17.20849
2022-09-12T09:23:22.863Z,17.49453
2022-09-12T09:33:24.460Z,17.91487
2022-09-12T09:43:25.609Z,18.01276
2022-09-12T09:53:26.869Z,18.10018
2022-09-12T10:03:28.228Z,18.47746
2022-09-12T10:13:29.622Z,18.69033
2022-09-12T10:23:31.334Z,18.8107
2022-09-12T10:33:33.025Z,18.83667
2022-09-12T10:43:35.303Z,18.85695
2022-09-12T10:53:36.687Z,19.14426
2022-09-12T11:03:37.995Z,19.54371
2022-09-12T11:13:39.734Z,19.77305
2022-09-12T11:23:41.047Z,19.73567
2022-09-12T11:33:43.155Z,19.84876
2022-09-12T11:43:45.050Z,20.00367
2022-09-12T11:53:46.412Z,20.05657
2022-09-12T12:03:47.509Z,20.29098
2022-09-12T12:13:48.902Z,20.48485
2022-09-12T12:23:50.290Z,20.91915
2022-09-12T12:33:51.349Z,20.67523
2022-09-12T12:43:52.761Z,20.36384
2022-09-12T12:53:53.787Z,20.33786
2022-09-12T13:03:55.770Z,20.50829
2022-09-12T13:13:57.035Z,20.39488
2022-09-12T13:23:57.967Z,20.1912
2022-09-12T13:33:59.658Z,20.0176
2022-09-12T13:44:01.581Z,20.11042
2022-09-12T13:54:02.521Z,20.34325
2022-09-12T14:04:04.471Z,23.74834
2022-09-12T14:14:06.490Z,20.14907
2022-09-12T14:24:07.452Z,20.07399
2022-09-12T14:34:08.831Z,19.96787
2022-09-12T14:44:09.819Z,20.22129
2022-09-12T14:54:11.329Z,20.12024
2022-09-12T15:04:12.647Z,20.1592
2022-09-12T15:14:14.386Z,20.13069
2022-09-12T15:24:15.621Z,20.042
2022-09-12T15:34:16.610Z,20.06195
2022-09-12T15:44:17.600Z,19.98719
2022-09-12T15:54:19.132Z,19.86872
2022-09-12T16:04:21.145Z,19.75373
2022-09-12T16:14:23.084Z,19.68911
2022-09-12T16:24:24.851Z,19.64919
2022-09-12T16:34:26.137Z,19.57412
2022-09-12T16:44:27.248Z,19.52629
2022-09-12T16:54:28.865Z,19.29726
2022-09-12T17:04:30.185Z,19.03624
2022-09-12T17:14:31.214Z,18.84649
2022-09-12T17:24:32.224Z,18.62095
2022-09-12T17:34:33.777Z,18.47334
2022-09-12T17:44:35.538Z,18.38243
2022-09-12T17:54:36.964Z,18.32762
2022-09-12T18:04:38.669Z,18.39129
2022-09-12T18:14:39.955Z,18.16734
2022-09-12T18:24:41.530Z,18.12077
2022-09-12T18:34:42.834Z,18.09638
2022-09-12T18:44:44.479Z,17.95447
2022-09-12T18:54:45.809Z,17.87243
2022-09-12T19:04:46.906Z,17.82998
2022-09-12T19:14:48.453Z,17.71119
2022-09-12T19:24:50.366Z,17.66463
2022-09-12T19:34:51.666Z,17.65829
2022-09-12T19:44:53.129Z,17.64911
2022-09-12T19:54:55.264Z,17.53254
2022-09-12T20:04:57.286Z,17.27596
2022-09-12T20:14:59.213Z,16.97471
2022-09-12T20:25:00.505Z,16.68361
2022-09-12T20:35:01.867Z,16.46694
2022-09-12T20:45:03.172Z,16.32503
2022-09-12T20:55:04.243Z,15.99307
2022-09-12T21:05:06.013Z,15.80333
2022-09-12T21:15:07.297Z,15.64463
2022-09-12T21:25:08.892Z,15.47168
2022-09-12T21:35:10.200Z,15.25153
2022-09-12T21:45:11.481Z,15.03012
2022-09-12T21:55:12.411Z,14.84355
2022-09-12T22:05:13.708Z,14.71146
2022-09-12T22:15:36.507Z,14.55372
2022-09-12T22:25:40.784Z,14.37127
2022-09-12T22:35:42.057Z,14.147
2022-09-12T22:45:43.097Z,13.96741
2022-09-12T22:55:44.355Z,13.82582
2022-09-12T23:05:45.626Z,13.68423
2022-09-12T23:15:46.747Z,13.45743
2022-09-12T23:25:48.414Z,13.23983
2022-09-12T23:35:49.633Z,13.17774
2022-09-12T23:45:51.235Z,13.03204
2022-09-12T23:55:52.562Z,12.91991
